Time;durP1;ratioP1;P1;durP2;ratioP2;P2;SDS_P1;SDS_P2;PMS_P1;PMS_P2;Temp;Humidity;BMP_temperature;BMP_pressure;BME280_temperature;BME280_humidity;BME280_pressure;Samples;Min_cycle;Max_cycle;Signal;HPM_P1;HPM_P2
2021/01/04 00:01:23;;;;;;;11.77;8.50;;;3.80;91.20;;;;;;5073697;28;20491;-86
2021/01/04 00:04:13;;;;;;;13.77;8.93;;;3.80;91.20;;;;;;5072379;28;20472;-86
2021/01/04 00:07:21;;;;;;;14.80;9.63;;;3.80;91.20;;;;;;5090343;28;20025;-86
2021/01/04 00:10:40;;;;;;;12.70;9.10;;;3.80;91.20;;;;;;5073063;28;20047;-86
2021/01/04 00:13:35;;;;;;;12.35;8.65;;;3.80;91.30;;;;;;5048060;28;20416;-86
2021/01/04 00:16:33;;;;;;;14.07;9.82;;;3.80;91.30;;;;;;5089553;28;20356;-86
2021/01/04 00:19:12;;;;;;;14.90;9.45;;;3.80;91.30;;;;;;5072688;28;20536;-87
2021/01/04 00:22:09;;;;;;;15.32;10.02;;;3.80;91.40;;;;;;5089770;28;20036;-86
2021/01/04 00:24:57;;;;;;;16.02;9.55;;;3.80;91.40;;;;;;5072792;28;20074;-86
2021/01/04 00:27:41;;;;;;;13.02;8.82;;;3.80;91.40;;;;;;5073039;28;20482;-86
2021/01/04 00:30:33;;;;;;;17.45;10.52;;;3.80;91.40;;;;;;5072707;28;20040;-86
2021/01/04 00:33:06;;;;;;;;;;;3.80;91.50;;;;;;5068901;28;20041;-86
2021/01/04 00:35:38;;;;;;;14.43;9.75;;;3.80;91.50;;;;;;5071344;28;19905;-86
2021/01/04 00:38:33;;;;;;;13.57;9.38;;;3.70;91.50;;;;;;5072196;28;20025;-86
2021/01/04 00:41:20;;;;;;;13.63;9.10;;;3.80;91.50;;;;;;5063152;28;20105;-86
2021/01/04 00:43:59;;;;;;;13.82;9.55;;;3.80;91.50;;;;;;5072472;28;20047;-86
2021/01/04 00:46:33;;;;;;;15.13;9.70;;;3.80;91.50;;;;;;5072038;28;20048;-86
2021/01/04 00:49:22;;;;;;;13.75;9.57;;;3.80;91.50;;;;;;5071491;28;20419;-85
2021/01/04 00:51:59;;;;;;;15.35;10.32;;;3.80;91.50;;;;;;5089075;28;20032;-87
2021/01/04 00:54:50;;;;;;;13.40;8.75;;;3.80;91.50;;;;;;5072185;28;20039;-86
2021/01/04 00:57:21;;;;;;;13.07;9.98;;;3.80;91.50;;;;;;5053269;28;20048;-87
2021/01/04 01:00:07;;;;;;;13.15;8.70;;;3.90;91.40;;;;;;5072456;28;20032;-86
2021/01/04 01:02:48;;;;;;;15.23;9.23;;;3.90;91.50;;;;;;5071984;28;20048;-86
2021/01/04 01:05:22;;;;;;;11.93;8.15;;;3.90;91.50;;;;;;5072112;28;20469;-86
2021/01/04 01:08:20;;;;;;;14.10;9.43;;;3.90;91.50;;;;;;5088368;28;20028;-86
2021/01/04 01:10:54;;;;;;;12.95;8.75;;;3.90;91.50;;;;;;5071249;28;20357;-86
2021/01/04 01:13:42;;;;;;;16.80;10.48;;;3.90;91.40;;;;;;5071948;28;20115;-86
2021/01/04 01:16:16;;;;;;;13.50;9.50;;;3.90;91.40;;;;;;5071676;28;20446;-85
2021/01/04 01:19:05;;;;;;;13.60;9.75;;;3.90;91.40;;;;;;5072356;28;20420;-87
2021/01/04 01:21:31;;;;;;;12.95;9.10;;;3.90;91.50;;;;;;5063458;28;20547;-86
2021/01/04 01:24:05;;;;;;;13.07;9.23;;;3.90;91.50;;;;;;5070479;28;20028;-86
2021/01/04 01:27:05;;;;;;;12.45;8.75;;;3.90;91.50;;;;;;5071292;28;20502;-86
2021/01/04 01:29:54;;;;;;;12.40;9.20;;;3.90;91.50;;;;;;5069607;28;20074;-86
2021/01/04 01:32:37;;;;;;;12.02;8.45;;;3.90;91.40;;;;;;5048491;28;20036;-86
2021/01/04 01:35:23;;;;;;;12.43;8.63;;;3.90;91.40;;;;;;5077832;28;20029;-86
2021/01/04 01:38:14;;;;;;;11.30;7.63;;;3.90;91.40;;;;;;5076992;28;20047;-86
2021/01/04 01:41:26;;;;;;;12.52;8.35;;;4.00;91.50;;;;;;5052346;28;20029;-86
2021/01/04 01:44:03;;;;;;;12.30;9.15;;;4.00;91.50;;;;;;5070291;28;20070;-87
2021/01/04 01:46:29;;;;;;;11.38;8.23;;;3.90;91.40;;;;;;5071736;28;20470;-86
2021/01/04 01:49:08;;;;;;;10.93;8.30;;;3.90;91.40;;;;;;5070662;28;20123;-87
2021/01/04 01:51:42;;;;;;;13.43;9.00;;;3.90;91.50;;;;;;5087103;28;20519;-87
2021/01/04 01:54:35;;;;;;;10.30;8.10;;;3.90;91.50;;;;;;5071422;28;20020;-86
2021/01/04 01:57:38;;;;;;;13.35;9.73;;;3.90;91.50;;;;;;5082462;28;20470;-86
2021/01/04 02:00:28;;;;;;;11.43;8.50;;;3.80;91.50;;;;;;5070885;28;20037;-86
2021/01/04 02:03:07;;;;;;;11.73;8.55;;;3.80;91.60;;;;;;5064950;28;20052;-86
2021/01/04 02:05:44;;;;;;;10.60;7.80;;;3.80;91.60;;;;;;5071640;28;20024;-86
2021/01/04 02:08:16;;;;;;;11.10;8.13;;;3.80;91.60;;;;;;5071529;28;20055;-87
2021/01/04 02:10:45;;;;;;;;;;;3.80;91.60;;;;;;5072068;28;20035;-87
2021/01/04 02:13:23;;;;;;;12.70;9.27;;;3.80;91.60;;;;;;5071130;28;19904;-86
2021/01/04 02:16:07;;;;;;;11.93;8.60;;;3.70;91.60;;;;;;5088218;28;20031;-86
2021/01/04 02:19:06;;;;;;;12.40;8.77;;;3.70;91.70;;;;;;5088125;28;20353;-87
2021/01/04 02:21:44;;;;;;;;;;;;;;;;;;;;;
2021/01/04 02:24:15;;;;;;;10.75;8.30;;;3.70;91.70;;;;;;5072059;28;20036;-87
2021/01/04 02:26:57;;;;;;;12.27;8.38;;;3.70;91.80;;;;;;5075687;28;20050;-86
2021/01/04 02:29:23;;;;;;;13.20;8.27;;;3.70;91.80;;;;;;5074434;28;20029;-86
2021/01/04 02:31:52;;;;;;;10.57;7.30;;;3.70;91.80;;;;;;5075257;28;20036;-87
2021/01/04 02:34:37;;;;;;;12.20;7.80;;;3.70;91.90;;;;;;5076011;28;20103;-86
2021/01/04 02:37:19;;;;;;;9.50;7.82;;;3.70;91.90;;;;;;5063725;28;20048;-87
2021/01/04 02:39:54;;;;;;;12.13;8.95;;;3.70;91.90;;;;;;5073884;28;20031;-87
2021/01/04 02:42:49;;;;;;;11.75;9.00;;;3.70;91.90;;;;;;5074554;28;20033;-86
2021/01/04 02:45:22;;;;;;;12.60;8.52;;;3.70;91.90;;;;;;5074909;28;20052;-86
2021/01/04 02:48:01;;;;;;;10.23;7.57;;;3.70;92.00;;;;;;5058521;28;20101;-86
2021/01/04 02:50:49;;;;;;;11.15;7.10;;;3.70;92.00;;;;;;5074796;28;20060;-86
2021/01/04 02:53:49;;;;;;;;;;;;;;;;;;;;;
2021/01/04 02:56:42;;;;;;;10.77;7.72;;;3.70;92.00;;;;;;5056334;28;20491;-86
2021/01/04 02:59:43;;;;;;;12.38;8.05;;;3.70;92.00;;;;;;5073947;28;20028;-86
2021/01/04 03:02:17;;;;;;;8.98;6.75;;;3.70;92.00;;;;;;5073698;28;20135;-86
2021/01/04 03:04:46;;;;;;;10.20;7.90;;;3.70;92.00;;;;;;5074759;28;20025;-86
2021/01/04 03:07:30;;;;;;;;;;;;;;;;;;;;;
2021/01/04 03:09:59;;;;;;;10.20;7.10;;;3.70;92.00;;;;;;5075989;28;20024;-86
2021/01/04 03:12:50;;;;;;;8.27;6.40;;;3.70;92.10;;;;;;5073577;28;20031;-86
2021/01/04 03:15:53;;;;;;;9.07;6.25;;;3.70;92.10;;;;;;5091153;28;20032;-86
2021/01/04 03:18:36;;;;;;;7.78;6.13;;;3.70;92.10;;;;;;5052577;28;20036;-85
2021/01/04 03:21:08;;;;;;;8.50;6.88;;;3.70;92.10;;;;;;5074229;28;20468;-86
2021/01/04 03:23:37;;;;;;;8.18;6.05;;;3.70;92.10;;;;;;5090941;28;20457;-87
2021/01/04 03:26:13;;;;;;;7.22;6.00;;;3.60;92.00;;;;;;5057301;28;20032;-86
2021/01/04 03:28:41;;;;;;;7.78;5.82;;;3.60;92.00;;;;;;5074065;28;20051;-86
2021/01/04 03:31:18;;;;;;;7.32;5.72;;;3.60;92.10;;;;;;5057631;28;20090;-86
2021/01/04 03:33:47;;;;;;;8.02;6.15;;;3.60;92.00;;;;;;5070568;28;20029;-87
2021/01/04 03:36:13;;;;;;;8.93;6.55;;;3.70;92.00;;;;;;5082036;28;20041;-86
2021/01/04 03:38:40;;;;;;;7.47;6.10;;;3.70;92.00;;;;;;5075351;28;20029;-86
2021/01/04 03:41:06;;;;;;;9.57;6.63;;;3.70;92.00;;;;;;5074696;28;20085;-87
2021/01/04 03:43:40;;;;;;;9.23;6.82;;;3.60;92.00;;;;;;5073712;28;20037;-86
2021/01/04 03:46:10;;;;;;;7.68;6.20;;;3.60;91.90;;;;;;5074157;28;20104;-85
2021/01/04 03:48:41;;;;;;;9.32;6.38;;;3.60;92.00;;;;;;5058177;28;20028;-86
2021/01/04 03:51:10;;;;;;;7.97;6.00;;;3.60;92.10;;;;;;5056824;28;20032;-88
2021/01/04 03:53:45;;;;;;;8.40;5.90;;;3.60;92.10;;;;;;5038477;28;20641;-87
2021/01/04 03:56:19;;;;;;;8.30;6.40;;;3.60;92.10;;;;;;5071414;28;20436;-87
2021/01/04 03:58:45;;;;;;;8.10;6.07;;;3.60;92.10;;;;;;5090922;28;20032;-87
2021/01/04 04:01:19;;;;;;;8.40;6.43;;;3.60;92.10;;;;;;5088942;28;20044;-87
2021/01/04 04:03:57;;;;;;;;;;;;;;;;;;;;;
2021/01/04 04:06:30;;;;;;;8.02;6.18;;;3.60;92.10;;;;;;5072274;28;20396;-86
2021/01/04 04:09:14;;;;;;;7.45;5.55;;;3.60;92.00;;;;;;5074680;28;20028;-86
2021/01/04 04:11:57;;;;;;;7.10;6.00;;;3.50;92.00;;;;;;5073256;28;20039;-86
2021/01/04 04:14:23;;;;;;;6.82;5.70;;;3.50;92.00;;;;;;5056744;28;20112;-87
2021/01/04 04:16:54;;;;;;;7.35;5.75;;;3.50;92.00;;;;;;5072686;28;20116;-86
2021/01/04 04:19:22;;;;;;;;;;;3.50;92.10;;;;;;5073977;28;20033;-87
2021/01/04 04:21:53;;;;;;;9.07;6.20;;;3.50;92.10;;;;;;5071670;28;19978;-85
2021/01/04 04:24:23;;;;;;;6.93;5.25;;;3.50;92.10;;;;;;5072353;28;20460;-87
2021/01/04 04:26:51;;;;;;;5.78;5.13;;;3.50;92.10;;;;;;5072324;28;20035;-87
2021/01/04 04:29:17;;;;;;;7.28;5.35;;;3.50;92.20;;;;;;5073107;28;20035;-86
2021/01/04 04:31:56;;;;;;;6.55;5.35;;;3.50;92.20;;;;;;5072541;28;20028;-85
2021/01/04 04:34:23;;;;;;;6.55;5.10;;;3.50;92.20;;;;;;5074733;28;20057;-86
2021/01/04 04:36:49;;;;;;;7.30;5.85;;;3.50;92.20;;;;;;5073986;28;20095;-86
2021/01/04 04:39:18;;;;;;;7.50;5.70;;;3.50;92.20;;;;;;5089480;28;20112;-89
2021/01/04 04:41:52;;;;;;;7.28;5.22;;;3.50;92.20;;;;;;5072183;28;20388;-86
2021/01/04 04:44:48;;;;;;;6.20;5.40;;;3.50;92.20;;;;;;5072531;28;20422;-87
2021/01/04 04:47:19;;;;;;;7.43;5.88;;;3.60;92.20;;;;;;5071399;28;20032;-87
2021/01/04 04:49:56;;;;;;;;;;;3.50;92.20;;;;;;5073248;28;20059;-87
2021/01/04 04:52:28;;;;;;;7.40;5.65;;;3.50;92.20;;;;;;5072492;28;20061;-86
2021/01/04 04:55:03;;;;;;;;;;;3.50;92.20;;;;;;5072685;28;20137;-87
2021/01/04 04:58:08;;;;;;;8.73;6.07;;;3.50;92.30;;;;;;5072091;28;20267;-86
2021/01/04 05:01:03;;;;;;;7.20;5.50;;;3.50;92.30;;;;;;5057170;28;20031;-85
2021/01/04 05:03:31;;;;;;;7.35;5.47;;;3.50;92.40;;;;;;5057030;28;20403;-86
2021/01/04 05:06:18;;;;;;;7.03;5.55;;;3.50;92.40;;;;;;5072358;28;20167;-85
2021/01/04 05:08:50;;;;;;;7.82;5.65;;;3.50;92.40;;;;;;5071957;28;20032;-86
2021/01/04 05:11:23;;;;;;;6.55;5.57;;;3.60;92.40;;;;;;5080445;28;20056;-87
2021/01/04 05:13:52;;;;;;;7.47;5.63;;;3.60;92.40;;;;;;5064992;28;20028;-86
2021/01/04 05:16:35;;;;;;;8.73;6.13;;;3.60;92.50;;;;;;5068846;28;20107;-87
2021/01/04 05:19:19;;;;;;;8.13;6.30;;;3.60;92.50;;;;;;5060843;28;20027;-89
2021/01/04 05:22:19;;;;;;;8.27;5.82;;;3.60;92.50;;;;;;5070248;28;20033;-88
2021/01/04 05:25:04;;;;;;;8.27;6.65;;;3.60;92.50;;;;;;5066824;28;20519;-88
2021/01/04 05:27:53;;;;;;;8.20;6.00;;;3.60;92.50;;;;;;5079273;28;20143;-89
2021/01/04 05:31:00;;;;;;;7.95;6.20;;;3.60;92.50;;;;;;5059540;28;20025;-89
2021/01/04 05:33:40;;;;;;;7.38;6.18;;;3.60;92.50;;;;;;5056834;28;20048;-88
2021/01/04 05:36:49;;;;;;;8.00;6.18;;;3.60;92.50;;;;;;5086866;28;20461;-89
2021/01/04 05:39:51;;;;;;;7.53;6.07;;;3.60;92.80;;;;;;5031181;28;20033;-88
2021/01/04 05:42:43;;;;;;;11.25;7.07;;;3.70;92.50;;;;;;5067201;28;20033;-88
2021/01/04 05:49:14;;;;;;;;;;;;;;;;;;;;;
2021/01/04 05:51:59;;;;;;;;;;;;;;;;;;;;;
2021/01/04 05:54:54;;;;;;;;;;;;;;;;;;;;;
2021/01/04 05:57:23;;;;;;;7.78;5.85;;;3.60;92.50;;;;;;5058541;28;20047;-92
2021/01/04 05:59:52;;;;;;;7.97;5.97;;;3.60;92.50;;;;;;5072306;28;20025;-88
2021/01/04 06:03:02;;;;;;;6.53;5.22;;;3.60;92.50;;;;;;5077725;28;20057;-89
2021/01/04 06:05:45;;;;;;;6.50;5.43;;;3.60;92.50;;;;;;5071989;28;20040;-88
2021/01/04 06:08:46;;;;;;;7.70;6.13;;;3.60;92.50;;;;;;5078883;28;20031;-89
2021/01/04 06:11:16;;;;;;;7.88;5.88;;;3.60;92.50;;;;;;5076884;28;20735;-88
2021/01/04 06:13:56;;;;;;;8.32;6.18;;;3.60;92.50;;;;;;5063426;28;20090;-88
2021/01/04 06:16:44;;;;;;;8.68;6.53;;;3.60;92.50;;;;;;5052915;28;20040;-92
2021/01/04 06:19:41;;;;;;;;;;;;;;;;;;;;;
2021/01/04 06:22:35;;;;;;;9.70;6.80;;;3.60;92.50;;;;;;5072531;28;20031;-87
2021/01/04 06:25:32;;;;;;;9.18;6.75;;;3.60;92.60;;;;;;5089137;28;20024;-87
2021/01/04 06:28:03;;;;;;;7.95;6.63;;;3.50;92.60;;;;;;5084329;28;20534;-87
2021/01/04 06:30:42;;;;;;;9.65;6.43;;;3.60;92.70;;;;;;5052822;28;20035;-87
2021/01/04 06:33:34;;;;;;;;;;;;;;;;;;;;;
2021/01/04 06:39:05;;;;;;;8.98;6.00;;;3.60;92.70;;;;;;5061085;28;20025;-88
2021/01/04 06:41:57;;;;;;;;;;;;;;;;;;;;;
2021/01/04 06:44:31;;;;;;;8.40;5.93;;;3.60;92.70;;;;;;5070726;28;20028;-89
2021/01/04 06:47:48;;;;;;;8.23;5.53;;;3.60;92.70;;;;;;5072602;28;20051;-90
2021/01/04 06:54:00;;;;;;;;;;;;;;;;;;;;;
2021/01/04 06:56:48;;;;;;;9.32;5.60;;;3.60;92.70;;;;;;5072021;28;20043;-89
2021/01/04 06:59:46;;;;;;;9.38;6.18;;;3.70;92.70;;;;;;5059390;28;20032;-88
2021/01/04 07:03:00;;;;;;;8.88;6.25;;;3.70;92.70;;;;;;5082019;28;20105;-88
2021/01/04 07:05:59;;;;;;;8.52;5.68;;;3.70;92.70;;;;;;5063863;28;20102;-91
2021/01/04 07:08:55;;;;;;;10.05;6.22;;;3.70;92.70;;;;;;5081012;28;20417;-88
2021/01/04 07:11:51;;;;;;;9.82;5.95;;;3.70;92.70;;;;;;5075125;28;20028;-88
2021/01/04 07:15:01;;;;;;;;;;;;;;;;;;;;;
2021/01/04 07:18:05;;;;;;;10.32;8.30;;;3.70;92.70;;;;;;5066988;28;20090;-89
2021/01/04 07:21:00;;;;;;;12.98;8.45;;;3.70;92.70;;;;;;5054942;28;20036;-89
2021/01/04 07:23:57;;;;;;;;;;;;;;;;;;;;;
2021/01/04 07:27:08;;;;;;;11.20;9.10;;;3.60;92.70;;;;;;5056161;28;20031;-89
2021/01/04 07:30:31;;;;;;;;;;;;;;;;;;;;;
2021/01/04 07:33:34;;;;;;;15.50;10.35;;;3.70;92.70;;;;;;5074212;28;20024;-88
2021/01/04 07:36:37;;;;;;;;;;;;;;;;;;;;;
2021/01/04 07:43:08;;;;;;;;;;;;;;;;;;;;;
2021/01/04 07:45:38;;;;;;;17.10;11.52;;;3.60;92.60;;;;;;5072048;28;20032;-89
2021/01/04 07:48:46;;;;;;;14.98;10.93;;;3.60;92.60;;;;;;5074469;28;20035;-87
2021/01/04 07:51:57;;;;;;;13.95;10.57;;;3.60;92.60;;;;;;5054422;28;20060;-89
2021/01/04 07:54:47;;;;;;;13.57;10.70;;;3.70;92.70;;;;;;5050705;28;20036;-89
2021/01/04 07:57:55;;;;;;;;;;;;;;;;;;;;;
2021/01/04 08:01:25;;;;;;;;;;;;;;;;;;;;;
2021/01/04 08:04:31;;;;;;;13.50;9.50;;;3.70;92.70;;;;;;5065532;28;20053;-88
2021/01/04 08:07:36;;;;;;;13.63;9.75;;;3.70;92.70;;;;;;5072852;28;20056;-88
2021/01/04 08:10:53;;;;;;;;;;;;;;;;;;;;;
2021/01/04 08:13:38;;;;;;;14.95;10.27;;;3.60;92.60;;;;;;5075003;28;20028;-89
2021/01/04 08:16:45;;;;;;;16.17;10.40;;;3.60;92.60;;;;;;5074132;28;20031;-89
2021/01/04 08:19:56;;;;;;;12.23;8.68;;;3.60;92.70;;;;;;5073932;28;20081;-89
2021/01/04 08:22:45;;;;;;;14.45;8.98;;;3.60;92.70;;;;;;5074365;28;20155;-88
2021/01/04 08:25:51;;;;;;;11.20;8.10;;;3.60;92.70;;;;;;5075242;28;20371;-88
2021/01/04 08:28:42;;;;;;;11.48;8.75;;;3.70;92.70;;;;;;5055994;28;20416;-88
2021/01/04 08:35:16;;;;;;;10.35;7.53;;;3.60;92.70;;;;;;5074532;28;20041;-88
2021/01/04 08:41:29;;;;;;;;;;;;;;;;;;;;;
2021/01/04 08:44:19;;;;;;;10.13;7.38;;;3.70;92.70;;;;;;5063895;28;20028;-88
2021/01/04 08:46:49;;;;;;;9.93;7.47;;;3.70;92.70;;;;;;5053223;28;20021;-89
2021/01/04 08:49:52;;;;;;;;;;;;;;;;;;;;;
2021/01/04 08:52:59;;;;;;;;;;;;;;;;;;;;;
2021/01/04 08:55:58;;;;;;;;;;;;;;;;;;;;;
2021/01/04 09:01:41;;;;;;;10.95;7.70;;;3.70;92.70;;;;;;5054340;28;20029;-88
2021/01/04 09:04:37;;;;;;;12.25;8.00;;;3.70;92.70;;;;;;5069407;28;20056;-88
2021/01/04 09:07:29;;;;;;;;;;;;;;;;;;;;;
2021/01/04 09:10:00;;;;;;;10.57;7.80;;;3.70;92.70;;;;;;5055428;28;20025;-88
2021/01/04 09:13:00;;;;;;;14.40;9.02;;;3.70;92.70;;;;;;5073566;28;20030;-89
2021/01/04 09:15:44;;;;;;;;;;;;;;;;;;;;;
2021/01/04 09:18:39;;;;;;;13.05;8.60;;;3.70;92.80;;;;;;5073187;28;20023;-89
2021/01/04 09:22:02;;;;;;;15.40;9.07;;;3.70;92.80;;;;;;5061951;28;20413;-88
2021/01/04 09:24:34;;;;;;;12.27;7.60;;;3.70;92.80;;;;;;5053662;28;20056;-87
2021/01/04 09:30:20;;;;;;;14.20;8.68;;;3.70;92.80;;;;;;5066355;28;20263;-89
2021/01/04 09:36:10;;;;;;;14.55;9.35;;;3.60;92.80;;;;;;5063735;28;20033;-88
2021/01/04 09:39:08;;;;;;;13.38;8.95;;;3.60;92.80;;;;;;5067001;28;20036;-89
2021/01/04 09:42:04;;;;;;;16.20;9.40;;;3.70;92.90;;;;;;5063643;28;20047;-88
2021/01/04 09:44:51;;;;;;;14.07;8.73;;;3.70;92.90;;;;;;5070571;28;20074;-89
2021/01/04 09:47:54;;;;;;;12.90;8.20;;;3.70;92.90;;;;;;5071247;28;20070;-88
2021/01/04 09:54:06;;;;;;;;;;;;;;;;;;;;;
2021/01/04 09:57:42;;;;;;;;;;;;;;;;;;;;;
2021/01/04 10:03:13;;;;;;;13.18;8.93;;;3.80;93.10;;;;;;5070290;28;20055;-88
2021/01/04 10:09:13;;;;;;;;;;;;;;;;;;;;;
2021/01/04 10:12:10;;;;;;;14.57;9.88;;;3.90;93.00;;;;;;5072541;28;20484;-88
2021/01/04 10:14:55;;;;;;;13.80;9.35;;;3.90;93.00;;;;;;5052549;28;20036;-88
2021/01/04 10:17:44;;;;;;;14.10;9.05;;;3.90;93.00;;;;;;5068911;28;20021;-88
2021/01/04 10:21:18;;;;;;;;;;;;;;;;;;;;;
2021/01/04 10:24:34;;;;;;;;;;;;;;;;;;;;;
2021/01/04 10:27:42;;;;;;;13.88;8.75;;;4.00;93.00;;;;;;5052705;28;20033;-89
2021/01/04 10:30:26;;;;;;;;;;;;;;;;;;;;;
2021/01/04 10:33:48;;;;;;;13.73;9.30;;;4.10;93.00;;;;;;5073084;28;20029;-89
2021/01/04 10:36:29;;;;;;;12.25;9.07;;;4.10;92.90;;;;;;5066287;28;20111;-88
2021/01/04 10:39:25;;;;;;;;;;;;;;;;;;;;;
2021/01/04 10:42:20;;;;;;;12.43;8.73;;;4.00;92.80;;;;;;5052880;28;20029;-89
2021/01/04 10:45:23;;;;;;;;;;;;;;;;;;;;;
2021/01/04 10:47:59;;;;;;;11.35;8.57;;;4.10;92.80;;;;;;5065482;28;20031;-92
2021/01/04 10:51:07;;;;;;;;;;;;;;;;;;;;;
2021/01/04 10:54:07;;;;;;;;;;;;;;;;;;;;;
2021/01/04 10:57:12;;;;;;;12.35;8.82;;;4.10;92.80;;;;;;5070415;28;20041;-91
2021/01/04 11:00:03;;;;;;;12.85;8.23;;;4.10;92.80;;;;;;5051371;28;20025;-88
2021/01/04 11:03:37;;;;;;;;;;;;;;;;;;;;;
2021/01/04 11:06:56;;;;;;;;;;;;;;;;;;;;;
2021/01/04 11:09:42;;;;;;;;;;;;;;;;;;;;;
2021/01/04 11:12:31;;;;;;;10.65;8.50;;;4.10;92.60;;;;;;5073365;28;20027;-89
2021/01/04 11:15:04;;;;;;;11.68;7.70;;;4.10;92.60;;;;;;5054702;28;20024;-88
2021/01/04 11:17:34;;;;;;;9.55;7.32;;;4.10;92.60;;;;;;5070655;28;20025;-89
2021/01/04 11:20:42;;;;;;;9.93;6.90;;;4.10;92.50;;;;;;5061632;28;20035;-88
2021/01/04 11:23:38;;;;;;;;;;;;;;;;;;;;;
2021/01/04 11:29:14;;;;;;;;;;;;;;;;;;;;;
2021/01/04 11:31:58;;;;;;;9.45;6.45;;;4.10;92.40;;;;;;5066787;28;20021;-87
2021/01/04 11:34:53;;;;;;;8.40;6.60;;;4.10;92.30;;;;;;5046815;28;20534;-88
2021/01/04 11:40:46;;;;;;;11.73;6.60;;;4.10;92.30;;;;;;5054783;28;20033;-90
2021/01/04 11:46:35;;;;;;;;;;;;;;;;;;;;;
2021/01/04 11:49:32;;;;;;;;;;;;;;;;;;;;;
2021/01/04 11:52:17;;;;;;;;;;;;;;;;;;;;;
2021/01/04 11:55:00;;;;;;;;;;;;;;;;;;;;;
2021/01/04 11:57:37;;;;;;;8.30;5.65;;;4.10;92.20;;;;;;5070519;28;20387;-88
2021/01/04 12:00:40;;;;;;;6.05;5.45;;;4.10;92.20;;;;;;5071477;28;20368;-88
2021/01/04 12:03:30;;;;;;;;;;;;;;;;;;;;;
2021/01/04 12:06:21;;;;;;;8.43;6.05;;;4.10;92.20;;;;;;5054061;28;20630;-88
2021/01/04 12:09:06;;;;;;;7.70;6.50;;;4.10;92.20;;;;;;5084556;28;20025;-89
2021/01/04 12:11:46;;;;;;;7.57;5.28;;;4.10;92.10;;;;;;5060727;28;20021;-89
2021/01/04 12:14:17;;;;;;;8.60;6.00;;;4.10;92.20;;;;;;5061121;28;20134;-88
2021/01/04 12:17:50;;;;;;;7.15;5.38;;;4.10;92.20;;;;;;5078377;28;20358;-88
2021/01/04 12:20:51;;;;;;;6.95;5.70;;;4.10;92.20;;;;;;5062588;28;20037;-90
2021/01/04 12:23:24;;;;;;;7.50;5.38;;;4.10;92.10;;;;;;5079931;28;20043;-89
2021/01/04 12:26:30;;;;;;;9.95;5.85;;;4.10;92.00;;;;;;5069695;28;20025;-88
2021/01/04 12:29:17;;;;;;;8.45;5.82;;;4.10;92.10;;;;;;5075491;28;20431;-88
2021/01/04 12:31:53;;;;;;;7.07;5.20;;;4.10;92.00;;;;;;5064933;28;20047;-89
2021/01/04 12:34:32;;;;;;;7.57;5.50;;;4.10;91.90;;;;;;5058510;28;20033;-87
2021/01/04 12:37:12;;;;;;;5.78;4.97;;;4.00;91.70;;;;;;5053301;28;20453;-89
2021/01/04 12:39:54;;;;;;;6.95;5.32;;;4.00;91.80;;;;;;5041617;28;20021;-88
2021/01/04 12:43:08;;;;;;;7.45;5.03;;;4.00;91.70;;;;;;5073601;28;20032;-89
2021/01/04 12:46:11;;;;;;;;;;;;;;;;;;;;;
2021/01/04 12:48:45;;;;;;;7.47;5.10;;;3.90;91.70;;;;;;5071576;28;20484;-87
2021/01/04 12:51:19;;;;;;;5.78;4.90;;;4.00;91.60;;;;;;5072883;28;20040;-88
2021/01/04 12:54:08;;;;;;;;;;;;;;;;;;;;;
2021/01/04 12:56:44;;;;;;;5.45;4.45;;;4.00;91.60;;;;;;5073923;28;20475;-87
2021/01/04 12:59:38;;;;;;;7.53;5.18;;;4.00;91.60;;;;;;5073529;28;20032;-88
2021/01/04 13:02:10;;;;;;;7.68;5.07;;;3.90;91.60;;;;;;5048491;28;20032;-87
2021/01/04 13:05:31;;;;;;;7.40;6.00;;;4.00;91.60;;;;;;5068662;28;20140;-87
2021/01/04 13:08:35;;;;;;;6.22;4.38;;;4.00;91.60;;;;;;5086861;28;20464;-89
2021/01/04 13:11:18;;;;;;;6.05;4.35;;;4.00;91.60;;;;;;5047848;28;20033;-87
2021/01/04 13:13:57;;;;;;;;;;;;;;;;;;;;;
2021/01/04 13:16:54;;;;;;;;;;;;;;;;;;;;;
2021/01/04 13:19:47;;;;;;;6.18;4.75;;;4.00;91.50;;;;;;5072993;28;20043;-87
2021/01/04 13:22:29;;;;;;;;;;;;;;;;;;;;;
2021/01/04 13:24:57;;;;;;;6.65;4.63;;;4.00;91.40;;;;;;5072310;28;20028;-88
2021/01/04 13:27:26;;;;;;;5.97;4.63;;;4.00;91.30;;;;;;5053709;28;20037;-90
2021/01/04 13:30:12;;;;;;;;;;;;;;;;;;;;;
2021/01/04 13:33:05;;;;;;;5.60;4.20;;;3.90;91.20;;;;;;5057360;28;20036;-88
2021/01/04 13:35:45;;;;;;;;;;;;;;;;;;;;;
2021/01/04 13:38:17;;;;;;;6.10;4.45;;;3.90;91.20;;;;;;5072274;28;20046;-88
2021/01/04 13:40:59;;;;;;;6.20;4.60;;;3.90;91.20;;;;;;5055611;28;20025;-88
2021/01/04 13:43:37;;;;;;;;;;;;;;;;;;;;;
2021/01/04 13:46:45;;;;;;;5.13;4.28;;;3.90;91.10;;;;;;5058175;28;20017;-88
2021/01/04 13:49:38;;;;;;;9.20;4.47;;;3.90;91.10;;;;;;5069391;28;20029;-86
2021/01/04 13:52:14;;;;;;;;;;;;;;;;;;;;;
2021/01/04 13:54:53;;;;;;;6.32;4.18;;;3.90;90.90;;;;;;5036450;28;20036;-88
2021/01/04 13:57:30;;;;;;;4.85;3.97;;;3.80;91.00;;;;;;5072388;28;20036;-86
2021/01/04 14:00:18;;;;;;;5.07;3.70;;;3.90;91.00;;;;;;5071834;28;20564;-89
2021/01/04 14:03:15;;;;;;;;;;;;;;;;;;;;;
2021/01/04 14:05:59;;;;;;;;;;;;;;;;;;;;;
2021/01/04 14:08:53;;;;;;;;;;;;;;;;;;;;;
2021/01/04 14:11:43;;;;;;;5.75;3.95;;;3.80;90.90;;;;;;5071813;28;20028;-87
2021/01/04 14:14:42;;;;;;;;;;;;;;;;;;;;;
2021/01/04 14:17:13;;;;;;;4.50;3.25;;;3.80;90.70;;;;;;5059489;28;20025;-88
2021/01/04 14:22:39;;;;;;;;;;;;;;;;;;;;;
2021/01/04 14:26:01;;;;;;;;;;;;;;;;;;;;;
2021/01/04 14:29:07;;;;;;;;;;;;;;;;;;;;;
2021/01/04 14:32:38;;;;;;;;;;;;;;;;;;;;;
2021/01/04 14:39:10;;;;;;;;;;;;;;;;;;;;;
2021/01/04 14:42:06;;;;;;;3.60;3.05;;;3.80;90.60;;;;;;5066735;28;20041;-88
2021/01/04 14:51:20;;;;;;;4.22;3.00;;;3.80;90.90;;;;;;5076305;28;20032;-87
2021/01/04 14:53:56;;;;;;;;;;;;;;;;;;;;;
2021/01/04 14:56:44;;;;;;;3.83;2.95;;;3.80;90.50;;;;;;5054424;28;19915;-88
2021/01/04 15:02:34;;;;;;;;;;;;;;;;;;;;;
2021/01/04 15:05:03;;;;;;;3.15;2.42;;;3.70;90.50;;;;;;5053737;28;20048;-88
2021/01/04 15:07:41;;;;;;;4.97;2.63;;;3.70;90.50;;;;;;5038403;28;20029;-88
2021/01/04 15:10:32;;;;;;;;;;;;;;;;;;;;;
2021/01/04 15:13:04;;;;;;;5.35;2.83;;;3.70;90.50;;;;;;5058396;28;20357;-88
2021/01/04 15:15:58;;;;;;;4.30;2.85;;;3.70;90.50;;;;;;5073141;28;20098;-88
2021/01/04 15:18:30;;;;;;;5.65;3.38;;;3.70;90.40;;;;;;5073974;28;20048;-90
2021/01/04 15:21:08;;;;;;;;;;;;;;;;;;;;;
2021/01/04 15:23:52;;;;;;;5.22;2.88;;;3.70;90.30;;;;;;5072019;28;20032;-88
2021/01/04 15:27:11;;;;;;;;;;;;;;;;;;;;;
2021/01/04 15:29:53;;;;;;;;;;;;;;;;;;;;;
2021/01/04 15:32:29;;;;;;;3.88;2.92;;;3.70;90.40;;;;;;5073809;28;20035;-88
2021/01/04 15:35:08;;;;;;;3.10;2.80;;;3.70;90.40;;;;;;5055835;28;20024;-87
2021/01/04 15:37:41;;;;;;;7.20;3.17;;;3.70;90.40;;;;;;5069611;28;20160;-88
2021/01/04 15:40:23;;;;;;;3.67;2.40;;;3.70;90.30;;;;;;5065653;28;20460;-88
2021/01/04 15:43:07;;;;;;;3.95;2.83;;;3.70;90.30;;;;;;5082935;28;20036;-88
2021/01/04 15:45:46;;;;;;;;;;;;;;;;;;;;;
2021/01/04 15:48:14;;;;;;;3.30;2.53;;;3.70;90.30;;;;;;5072144;28;20031;-89
2021/01/04 15:50:40;;;;;;;3.90;2.78;;;3.70;90.30;;;;;;5053979;28;20483;-89
2021/01/04 15:53:08;;;;;;;3.20;2.58;;;3.70;90.10;;;;;;5070237;28;20024;-87
2021/01/04 15:58:53;;;;;;;4.28;2.95;;;3.60;90.10;;;;;;5064932;28;20067;-87
2021/01/04 16:01:28;;;;;;;4.95;2.88;;;3.70;90.10;;;;;;5054495;28;20033;-89
2021/01/04 16:04:47;;;;;;;5.63;2.95;;;3.60;90.10;;;;;;5083330;28;20048;-86
2021/01/04 16:07:23;;;;;;;6.75;3.10;;;3.60;90.10;;;;;;5072816;28;20047;-89
2021/01/04 16:09:58;;;;;;;3.85;2.70;;;3.60;90.10;;;;;;5073403;28;20475;-87
2021/01/04 16:12:40;;;;;;;;;;;;;;;;;;;;;
2021/01/04 16:15:07;;;;;;;;;;;3.60;90.20;;;;;;5072880;28;20024;-86
2021/01/04 16:17:36;;;;;;;5.57;3.30;;;3.60;90.10;;;;;;5074575;28;20329;-87
2021/01/04 16:20:25;;;;;;;3.53;2.90;;;3.50;90.00;;;;;;5068083;28;20052;-87
2021/01/04 16:22:55;;;;;;;7.05;3.03;;;3.60;90.10;;;;;;5067254;28;20039;-86
2021/01/04 16:25:22;;;;;;;4.05;3.03;;;3.60;90.20;;;;;;5072898;28;20032;-87
2021/01/04 16:27:58;;;;;;;;;;;;;;;;;;;;;
2021/01/04 16:30:24;;;;;;;4.25;3.38;;;3.50;90.20;;;;;;5072377;28;20033;-86
2021/01/04 16:32:50;;;;;;;5.05;2.90;;;3.60;90.30;;;;;;5054828;28;20037;-86
2021/01/04 16:35:27;;;;;;;3.80;2.90;;;3.60;90.30;;;;;;5051613;28;20473;-86
2021/01/04 16:38:10;;;;;;;3.63;3.10;;;3.60;90.20;;;;;;5051796;28;20029;-87
2021/01/04 16:40:46;;;;;;;3.38;2.53;;;3.60;90.20;;;;;;5068135;28;20029;-86
2021/01/04 16:43:24;;;;;;;4.03;3.13;;;3.60;90.20;;;;;;5067585;28;20110;-87
2021/01/04 16:45:52;;;;;;;4.85;3.22;;;3.50;90.10;;;;;;5070337;28;20056;-85
2021/01/04 16:48:18;;;;;;;5.03;3.20;;;3.60;90.10;;;;;;5072033;28;20112;-85
2021/01/04 16:50:54;;;;;;;5.05;3.53;;;3.50;90.10;;;;;;5071893;28;20103;-87
2021/01/04 16:53:21;;;;;;;5.57;3.17;;;3.50;90.10;;;;;;5072047;28;20059;-87
2021/01/04 16:55:59;;;;;;;;;;;;;;;;;;;;;
2021/01/04 16:58:25;;;;;;;5.47;3.28;;;3.50;90.10;;;;;;5060879;28;20033;-86
2021/01/04 17:00:53;;;;;;;5.28;3.30;;;3.50;90.10;;;;;;5079867;28;20115;-86
2021/01/04 17:03:48;;;;;;;3.80;3.40;;;3.50;90.10;;;;;;5087566;28;20048;-86
2021/01/04 17:06:20;;;;;;;4.85;3.60;;;3.50;90.10;;;;;;5069119;28;20028;-86
2021/01/04 17:09:02;;;;;;;7.85;4.97;;;3.50;90.10;;;;;;5072058;28;20054;-89
2021/01/04 17:11:33;;;;;;;7.40;3.95;;;3.50;90.10;;;;;;5053157;28;20120;-85
2021/01/04 17:13:59;;;;;;;4.20;3.55;;;3.40;90.00;;;;;;5073473;28;20028;-85